Barhom II — 5IM534 — position and weather

sailwx.info

Track history (hours):
 
Tides and Currents Weather Stations Pressure Air Temp Water Temp Dewpoint Dewpoint Depression Visibility Wind Speed Wind Dir Waves Ship Positions

Barhom II

Last reported at 2017-Jun-25 13:50 UTC. Time now 2017-Jun-25 22:41 UTC.
Position N 37°40' E 010°34'.

Length 83 m.

Type: Cargo ship. MMSI: 677043400.

Date/timePositionNaut miles runAvg speedWind from/ knotsBaromVisibWave heightAir tempDewpointWater temp
2017-Jun-25 13:50N 37°40' E 010°34'310.2
2017-Jun-25 13:30N 37°39' E 010°38'510.5
2017-Jun-25 13:00N 37°37' E 010°44'510.3
2017-Jun-25 12:30N 37°35' E 010°50'510.1
2017-Jun-25 12:00N 37°33' E 010°56'510.0
2017-Jun-25 11:30N 37°31' E 011°01'5 9.8
2017-Jun-25 11:00N 37°29' E 011°07'510.0
2017-Jun-25 10:29N 37°27' E 011°13'510.2
2017-Jun-25 10:00N 37°24' E 011°18'5 9.7
2017-Jun-25 09:30N 37°21' E 011°22'5 9.8
2017-Jun-25 09:00N 37°17' E 011°26'510.1
2017-Jun-25 08:30N 37°12' E 011°29'510.1
2017-Jun-25 08:00N 37°08' E 011°33'510.2
2017-Jun-25 07:30N 37°04' E 011°36'510.1
2017-Jun-25 06:59N 36°60' E 011°40'510.4
2017-Jun-25 06:30N 36°56' E 011°43'510.6
2017-Jun-25 06:00N 36°51' E 011°47'510.5
2017-Jun-25 05:30N 36°47' E 011°50'510.4
2017-Jun-25 05:00N 36°42' E 011°54'510.6
2017-Jun-25 04:30N 36°38' E 011°57'510.5
2017-Jun-25 04:00N 36°33' E 012°01'510.4
2017-Jun-25 03:30N 36°29' E 012°04'510.4
2017-Jun-25 02:59N 36°24' E 012°08'510.4
2017-Jun-25 02:30N 36°20' E 012°11'510.2
2017-Jun-25 02:00N 36°16' E 012°15'510.2
2017-Jun-25 01:30N 36°11' E 012°18'510.1
2017-Jun-25 01:00N 36°07' E 012°21'510.1
2017-Jun-25 00:30N 36°03' E 012°24'510.2
2017-Jun-25 00:00N 35°59' E 012°28'510.5
2017-Jun-24 23:30N 35°54' E 012°31'510.5
2017-Jun-24 23:00N 35°50' E 012°35'510.7
2017-Jun-24 22:30N 35°45' E 012°38'510.8
2017-Jun-24 22:00N 35°41' E 012°42'510.7
2017-Jun-24 21:30N 35°36' E 012°45'510.5
2017-Jun-24 21:00N 35°32' E 012°49'510.5
2017-Jun-24 20:30N 35°27' E 012°52'510.7
2017-Jun-24 20:00N 35°23' E 012°56'610.8
2017-Jun-24 19:29N 35°18' E 012°59'510.9
2017-Jun-24 19:00N 35°14' E 013°03'511.0
2017-Jun-24 18:30N 35°09' E 013°06'611.1
2017-Jun-24 18:00N 35°04' E 013°10'511.0
2017-Jun-24 17:30N 34°60' E 013°14'510.8
2017-Jun-24 17:00N 34°55' E 013°17'510.7
2017-Jun-24 16:30N 34°51' E 013°21'510.4
2017-Jun-24 16:00N 34°46' E 013°24'510.0
2017-Jun-24 15:30N 34°42' E 013°27'3110.2
2017-Jun-24 12:27N 34°16' E 013°48'510.6
2017-Jun-24 12:00N 34°12' E 013°51'510.6
2017-Jun-24 11:30N 34°07' E 013°54'510.6
2017-Jun-24 11:00N 34°03' E 013°58'510.7
2017-Jun-24 10:30N 33°58' E 014°01'510.7
2017-Jun-24 10:00N 33°54' E 014°05'510.7
2017-Jun-24 09:30N 33°49' E 014°08'510.6
2017-Jun-24 09:00N 33°45' E 014°11'510.6
2017-Jun-24 08:30N 33°40' E 014°15'510.4
2017-Jun-24 08:00N 33°36' E 014°18'510.2
2017-Jun-24 07:30N 33°32' E 014°22'510.2
2017-Jun-24 07:00N 33°27' E 014°25'510.2
2017-Jun-24 06:30N 33°23' E 014°28'510.2
2017-Jun-24 06:00N 33°19' E 014°32'510.3
2017-Jun-24 05:30N 33°15' E 014°35'510.6
2017-Jun-24 05:00N 33°10' E 014°38'810.5
2017-Jun-24 04:12N 33°03' E 014°44'1310.5
2017-Jun-24 02:58N 32°52' E 014°52'510.6
2017-Jun-24 02:30N 32°48' E 014°56'30 7.9
2017-Jun-23 22:39N 32°22' E 015°13'0 0.0
2017-Jun-23 22:30N 32°22' E 015°13'0 0.0
2017-Jun-23 21:57N 32°22' E 015°13'0 0.0
2017-Jun-23 21:27N 32°22' E 015°13'0 0.0
2017-Jun-23 17:48N 32°22' E 015°13'0 0.0
2017-Jun-23 17:24N 32°22' E 015°13'0 0.0
2017-Jun-23 16:21N 32°22' E 015°13'0 0.0
2017-Jun-23 15:57N 32°22' E 015°13'0 0.0
2017-Jun-23 15:27N 32°22' E 015°13'0 0.0
2017-Jun-23 13:48N 32°22' E 015°13'0 0.0
2017-Jun-23 13:30N 32°22' E 015°13'0 0.0
2017-Jun-23 13:00N 32°22' E 015°13'0 0.0
2017-Jun-23 12:30N 32°22' E 015°13'0 0.0
2017-Jun-23 11:51N 32°22' E 015°13'0 0.0
2017-Jun-23 11:27N 32°22' E 015°13'0 0.0
2017-Jun-23 10:39N 32°22' E 015°13'0 0.0
2017-Jun-23 10:30N 32°22' E 015°13'0 0.0
2017-Jun-23 10:00N 32°22' E 015°13'0 0.0
2017-Jun-23 09:30N 32°22' E 015°13'0 0.0
2017-Jun-23 09:00N 32°22' E 015°13'0 0.0
2017-Jun-23 08:15N 32°22' E 015°13'0 0.0
2017-Jun-23 08:00N 32°22' E 015°13'0 0.0
2017-Jun-22 21:39N 32°22' E 015°13'0 0.0
2017-Jun-22 21:27N 32°22' E 015°13'0 0.0
2017-Jun-22 20:06N 32°22' E 015°13'0 0.1
2017-Jun-22 20:00N 32°22' E 015°13'0 0.0
2017-Jun-22 18:51N 32°22' E 015°13'0 0.0
2017-Jun-22 18:30N 32°22' E 015°13'0 0.0
2017-Jun-22 18:00N 32°22' E 015°13'0 0.1
2017-Jun-22 17:30N 32°22' E 015°13'1 2.0
2017-Jun-22 17:00N 32°22' E 015°14'3 6.1
2017-Jun-22 16:30N 32°24' E 015°18'4 8.6
2017-Jun-22 16:00N 32°26' E 015°22'1010.8
2017-Jun-22 15:06N 32°31' E 015°32'410.9
2017-Jun-22 14:42N 32°33' E 015°37'311.0
2017-Jun-22 14:25N 32°34' E 015°40'8910.8
2017-Jun-22 06:11N 33°19' E 017°11'510.5
2017-Jun-22 05:43N 33°22' E 017°16'710.4
2017-Jun-22 05:03N 33°25' E 017°24'010.3
2017-Jun-22 05:00N 33°25' E 017°24'510.3
2017-Jun-22 04:30N 33°27' E 017°30'810.3
2017-Jun-22 03:46N 33°31' E 017°38'  
Track history (hours):
 
Tides and Currents Weather Stations Pressure Air Temp Water Temp Dewpoint Dewpoint Depression Visibility Wind Speed Wind Dir Waves Ship Positions

Barhom II

Last reported at 2017-Jun-25 13:50 UTC. Time now 2017-Jun-25 22:41 UTC.
Position N 37°40' E 010°34'.

Length 83 m.

Type: Cargo ship. MMSI: 677043400.

Date/timePositionNaut miles runAvg speedWind from/ knotsBaromVisibWave heightAir tempDewpointWater temp
2017-Jun-25 13:50N 37°40' E 010°34'310.2
2017-Jun-25 13:30N 37°39' E 010°38'510.5
2017-Jun-25 13:00N 37°37' E 010°44'510.3
2017-Jun-25 12:30N 37°35' E 010°50'510.1
2017-Jun-25 12:00N 37°33' E 010°56'510.0
2017-Jun-25 11:30N 37°31' E 011°01'5 9.8
2017-Jun-25 11:00N 37°29' E 011°07'510.0
2017-Jun-25 10:29N 37°27' E 011°13'510.2
2017-Jun-25 10:00N 37°24' E 011°18'5 9.7
2017-Jun-25 09:30N 37°21' E 011°22'5 9.8
2017-Jun-25 09:00N 37°17' E 011°26'510.1
2017-Jun-25 08:30N 37°12' E 011°29'510.1
2017-Jun-25 08:00N 37°08' E 011°33'510.2
2017-Jun-25 07:30N 37°04' E 011°36'510.1
2017-Jun-25 06:59N 36°60' E 011°40'510.4
2017-Jun-25 06:30N 36°56' E 011°43'510.6
2017-Jun-25 06:00N 36°51' E 011°47'510.5
2017-Jun-25 05:30N 36°47' E 011°50'510.4
2017-Jun-25 05:00N 36°42' E 011°54'510.6
2017-Jun-25 04:30N 36°38' E 011°57'510.5
2017-Jun-25 04:00N 36°33' E 012°01'510.4
2017-Jun-25 03:30N 36°29' E 012°04'510.4
2017-Jun-25 02:59N 36°24' E 012°08'510.4
2017-Jun-25 02:30N 36°20' E 012°11'510.2
2017-Jun-25 02:00N 36°16' E 012°15'510.2
2017-Jun-25 01:30N 36°11' E 012°18'510.1
2017-Jun-25 01:00N 36°07' E 012°21'510.1
2017-Jun-25 00:30N 36°03' E 012°24'510.2
2017-Jun-25 00:00N 35°59' E 012°28'510.5
2017-Jun-24 23:30N 35°54' E 012°31'510.5
2017-Jun-24 23:00N 35°50' E 012°35'510.7
2017-Jun-24 22:30N 35°45' E 012°38'510.8
2017-Jun-24 22:00N 35°41' E 012°42'510.7
2017-Jun-24 21:30N 35°36' E 012°45'510.5
2017-Jun-24 21:00N 35°32' E 012°49'510.5
2017-Jun-24 20:30N 35°27' E 012°52'510.7
2017-Jun-24 20:00N 35°23' E 012°56'610.8
2017-Jun-24 19:29N 35°18' E 012°59'510.9
2017-Jun-24 19:00N 35°14' E 013°03'511.0
2017-Jun-24 18:30N 35°09' E 013°06'611.1
2017-Jun-24 18:00N 35°04' E 013°10'511.0
2017-Jun-24 17:30N 34°60' E 013°14'510.8
2017-Jun-24 17:00N 34°55' E 013°17'510.7
2017-Jun-24 16:30N 34°51' E 013°21'510.4
2017-Jun-24 16:00N 34°46' E 013°24'510.0
2017-Jun-24 15:30N 34°42' E 013°27'3110.2
2017-Jun-24 12:27N 34°16' E 013°48'510.6
2017-Jun-24 12:00N 34°12' E 013°51'510.6
2017-Jun-24 11:30N 34°07' E 013°54'510.6
2017-Jun-24 11:00N 34°03' E 013°58'510.7
2017-Jun-24 10:30N 33°58' E 014°01'510.7
2017-Jun-24 10:00N 33°54' E 014°05'510.7
2017-Jun-24 09:30N 33°49' E 014°08'510.6
2017-Jun-24 09:00N 33°45' E 014°11'510.6
2017-Jun-24 08:30N 33°40' E 014°15'510.4
2017-Jun-24 08:00N 33°36' E 014°18'510.2
2017-Jun-24 07:30N 33°32' E 014°22'510.2
2017-Jun-24 07:00N 33°27' E 014°25'510.2
2017-Jun-24 06:30N 33°23' E 014°28'510.2
2017-Jun-24 06:00N 33°19' E 014°32'510.3
2017-Jun-24 05:30N 33°15' E 014°35'510.6
2017-Jun-24 05:00N 33°10' E 014°38'810.5
2017-Jun-24 04:12N 33°03' E 014°44'1310.5
2017-Jun-24 02:58N 32°52' E 014°52'510.6
2017-Jun-24 02:30N 32°48' E 014°56'30 7.9
2017-Jun-23 22:39N 32°22' E 015°13'0 0.0
2017-Jun-23 22:30N 32°22' E 015°13'0 0.0
2017-Jun-23 21:57N 32°22' E 015°13'0 0.0
2017-Jun-23 21:27N 32°22' E 015°13'0 0.0
2017-Jun-23 17:48N 32°22' E 015°13'0 0.0
2017-Jun-23 17:24N 32°22' E 015°13'0 0.0
2017-Jun-23 16:21N 32°22' E 015°13'0 0.0
2017-Jun-23 15:57N 32°22' E 015°13'0 0.0
2017-Jun-23 15:27N 32°22' E 015°13'0 0.0
2017-Jun-23 13:48N 32°22' E 015°13'0 0.0
2017-Jun-23 13:30N 32°22' E 015°13'0 0.0
2017-Jun-23 13:00N 32°22' E 015°13'0 0.0
2017-Jun-23 12:30N 32°22' E 015°13'0 0.0
2017-Jun-23 11:51N 32°22' E 015°13'0 0.0
2017-Jun-23 11:27N 32°22' E 015°13'0 0.0
2017-Jun-23 10:39N 32°22' E 015°13'0 0.0
2017-Jun-23 10:30N 32°22' E 015°13'0 0.0
2017-Jun-23 10:00N 32°22' E 015°13'0 0.0
2017-Jun-23 09:30N 32°22' E 015°13'0 0.0
2017-Jun-23 09:00N 32°22' E 015°13'0 0.0
2017-Jun-23 08:15N 32°22' E 015°13'0 0.0
2017-Jun-23 08:00N 32°22' E 015°13'0 0.0
2017-Jun-22 21:39N 32°22' E 015°13'0 0.0
2017-Jun-22 21:27N 32°22' E 015°13'0 0.0
2017-Jun-22 20:06N 32°22' E 015°13'0 0.1
2017-Jun-22 20:00N 32°22' E 015°13'0 0.0
2017-Jun-22 18:51N 32°22' E 015°13'0 0.0
2017-Jun-22 18:30N 32°22' E 015°13'0 0.0
2017-Jun-22 18:00N 32°22' E 015°13'0 0.1
2017-Jun-22 17:30N 32°22' E 015°13'1 2.0
2017-Jun-22 17:00N 32°22' E 015°14'3 6.1
2017-Jun-22 16:30N 32°24' E 015°18'4 8.6
2017-Jun-22 16:00N 32°26' E 015°22'1010.8
2017-Jun-22 15:06N 32°31' E 015°32'410.9
2017-Jun-22 14:42N 32°33' E 015°37'311.0
2017-Jun-22 14:25N 32°34' E 015°40'8910.8
2017-Jun-22 06:11N 33°19' E 017°11'510.5
2017-Jun-22 05:43N 33°22' E 017°16'710.4
2017-Jun-22 05:03N 33°25' E 017°24'010.3
2017-Jun-22 05:00N 33°25' E 017°24'510.3
2017-Jun-22 04:30N 33°27' E 017°30'810.3
2017-Jun-22 03:46N 33°31' E 017°38'  

Dump ship's entire track history